createdAt,value
2022-12-18T00:01:32.905Z,37.75
2022-12-18T00:04:02.183Z,37.85
2022-12-18T00:06:32.041Z,36.03
2022-12-18T00:09:01.606Z,37.33
2022-12-18T00:11:32.708Z,37.22
2022-12-18T00:14:01.944Z,34.97
2022-12-18T00:16:33.780Z,35.42
2022-12-18T00:19:02.160Z,34.15
2022-12-18T00:21:31.164Z,33.95
2022-12-18T00:24:00.108Z,33.58
2022-12-18T00:26:30.316Z,34.58
2022-12-18T00:29:02.379Z,36.05
2022-12-18T00:31:30.644Z,33.55
2022-12-18T00:33:59.205Z,33.92
2022-12-18T00:36:29.486Z,34.13
2022-12-18T00:38:58.785Z,32.47
2022-12-18T00:41:44.680Z,30.85
2022-12-18T00:44:16.043Z,28.40
2022-12-18T00:46:44.669Z,30.15
2022-12-18T00:49:13.097Z,31.15
2022-12-18T00:51:41.458Z,31.42
2022-12-18T00:54:09.483Z,33.08
2022-12-18T00:56:48.017Z,30.95
2022-12-18T00:59:18.711Z,28.75
2022-12-18T01:01:46.866Z,30.95
2022-12-18T01:04:15.637Z,31.02
2022-12-18T01:06:43.580Z,30.65
2022-12-18T01:09:12.616Z,27.27
2022-12-18T01:11:40.558Z,32.45
2022-12-18T01:14:08.561Z,32.33
2022-12-18T01:16:37.898Z,32.55
2022-12-18T01:19:05.887Z,29.75
2022-12-18T01:21:34.603Z,31.50
2022-12-18T01:24:02.506Z,30.63
2022-12-18T01:26:31.351Z,30.90
2022-12-18T01:28:59.601Z,30.92
2022-12-18T01:31:30.020Z,30.20
2022-12-18T01:33:59.791Z,30.00
2022-12-18T01:36:29.867Z,28.85
2022-12-18T01:38:59.009Z,29.92
2022-12-18T01:41:48.675Z,30.27
2022-12-18T01:44:52.431Z,27.27
2022-12-18T01:47:25.151Z,29.75
2022-12-18T01:49:55.483Z,28.48
2022-12-18T01:52:24.224Z,29.90
2022-12-18T01:54:53.727Z,29.45
2022-12-18T01:57:22.330Z,26.90
2022-12-18T01:59:54.602Z,28.45
2022-12-18T02:02:23.237Z,29.13
2022-12-18T02:04:51.255Z,26.73
2022-12-18T02:07:30.543Z,28.83
2022-12-18T02:10:03.697Z,31.38
2022-12-18T02:12:41.264Z,28.70
2022-12-18T02:17:45.012Z,27.35
2022-12-18T02:20:19.404Z,29.80
2022-12-18T02:23:04.999Z,30.45
2022-12-18T02:25:47.815Z,25.85
2022-12-18T02:28:18.378Z,28.42
2022-12-18T02:30:51.332Z,27.35
2022-12-18T02:33:21.338Z,27.75
2022-12-18T02:35:50.376Z,27.52
2022-12-18T02:38:18.870Z,29.55
2022-12-18T02:40:47.893Z,28.00
2022-12-18T02:43:18.017Z,30.98
2022-12-18T02:45:51.616Z,25.98
2022-12-18T02:48:30.069Z,27.35
2022-12-18T02:51:05.097Z,26.95
2022-12-18T02:53:38.933Z,28.35
2022-12-18T02:56:11.090Z,27.15
2022-12-18T02:58:49.270Z,27.27
2022-12-18T03:01:23.921Z,27.73
2022-12-18T03:03:58.493Z,25.90
2022-12-18T03:06:29.634Z,25.27
2022-12-18T03:09:04.248Z,26.50
2022-12-18T03:11:53.704Z,28.10
2022-12-18T03:14:25.497Z,26.58
2022-12-18T03:16:56.758Z,25.92
2022-12-18T03:19:29.541Z,24.58
2022-12-18T03:22:00.614Z,24.98
2022-12-18T03:24:36.702Z,26.30
2022-12-18T03:27:09.016Z,23.98
2022-12-18T03:29:42.408Z,25.15
2022-12-18T03:32:13.758Z,24.77
2022-12-18T03:34:44.465Z,24.90
2022-12-18T03:37:12.496Z,25.95
2022-12-18T03:39:40.472Z,26.45
2022-12-18T03:42:13.617Z,26.70
2022-12-18T03:44:50.061Z,25.23
2022-12-18T03:47:26.903Z,24.58
2022-12-18T03:49:59.694Z,26.67
2022-12-18T03:52:31.993Z,24.83
2022-12-18T03:55:01.777Z,24.92
2022-12-18T03:57:33.420Z,22.67
2022-12-18T04:00:06.128Z,25.45
2022-12-18T04:02:36.318Z,26.20
2022-12-18T04:05:08.962Z,24.73
2022-12-18T04:07:37.595Z,24.13
2022-12-18T04:10:08.559Z,25.38
2022-12-18T04:12:36.886Z,23.75
2022-12-18T04:15:07.055Z,26.08
2022-12-18T04:17:35.012Z,24.23
2022-12-18T04:20:03.574Z,22.75
2022-12-18T04:22:31.480Z,24.00
2022-12-18T04:24:59.423Z,27.35
2022-12-18T04:27:27.329Z,24.80
2022-12-18T04:29:55.208Z,26.20
2022-12-18T04:32:24.529Z,25.40
2022-12-18T04:34:52.435Z,25.35
2022-12-18T04:37:20.389Z,25.42
2022-12-18T04:39:49.034Z,26.02
2022-12-18T04:42:16.969Z,24.75
2022-12-18T04:44:45.585Z,24.95
2022-12-18T04:47:13.501Z,27.98
2022-12-18T04:49:42.761Z,26.25
2022-12-18T04:52:10.693Z,25.80
2022-12-18T04:54:38.653Z,26.92
2022-12-18T04:57:06.543Z,26.45
2022-12-18T04:59:34.440Z,25.85
2022-12-18T05:02:02.584Z,25.92
2022-12-18T05:04:30.498Z,25.92
2022-12-18T05:06:59.748Z,25.95
2022-12-18T05:09:27.693Z,25.95
2022-12-18T05:11:55.690Z,25.77
2022-12-18T05:14:24.104Z,25.00
2022-12-18T05:16:53.285Z,26.15
2022-12-18T05:19:23.662Z,26.48
2022-12-18T05:21:51.569Z,24.75
2022-12-18T05:24:20.780Z,25.38
2022-12-18T05:26:48.700Z,24.13
2022-12-18T05:29:16.630Z,25.80
2022-12-18T05:31:44.582Z,28.55
2022-12-18T05:34:12.762Z,25.88
2022-12-18T05:36:40.901Z,25.60
2022-12-18T05:39:08.935Z,26.42
2022-12-18T05:41:38.291Z,25.60
2022-12-18T05:44:06.345Z,27.27
2022-12-18T05:46:34.353Z,24.40
2022-12-18T05:49:03.009Z,24.73
2022-12-18T05:51:30.875Z,26.20
2022-12-18T05:53:58.776Z,24.13
2022-12-18T05:56:26.712Z,25.42
2022-12-18T05:58:56.543Z,25.58
2022-12-18T06:01:27.250Z,25.90
2022-12-18T06:03:55.721Z,25.48
2022-12-18T06:06:25.845Z,25.23
2022-12-18T06:08:54.703Z,25.65
2022-12-18T06:11:24.541Z,26.60
2022-12-18T06:13:58.609Z,26.83
2022-12-18T06:16:27.695Z,26.67
2022-12-18T06:18:57.626Z,26.90
2022-12-18T06:21:25.685Z,25.05
2022-12-18T06:23:53.618Z,26.67
2022-12-18T06:26:27.603Z,23.70
2022-12-18T06:28:57.929Z,24.65
2022-12-18T06:31:26.936Z,25.55
2022-12-18T06:33:54.903Z,26.88
2022-12-18T06:36:23.121Z,25.83
2022-12-18T06:38:51.191Z,25.80
2022-12-18T06:41:20.616Z,23.02
2022-12-18T06:43:48.679Z,25.27
2022-12-18T06:46:18.259Z,23.73
2022-12-18T06:48:49.498Z,24.20
2022-12-18T06:51:19.289Z,25.20
2022-12-18T06:53:47.488Z,24.17
2022-12-18T06:56:15.706Z,22.55
2022-12-18T06:58:43.717Z,24.95
2022-12-18T07:01:13.271Z,25.00
2022-12-18T07:03:43.873Z,24.88
2022-12-18T07:06:16.881Z,27.55
2022-12-18T07:08:45.056Z,23.27
2022-12-18T07:11:13.292Z,24.63
2022-12-18T07:13:41.650Z,23.30
2022-12-18T07:16:17.069Z,22.88
2022-12-18T07:18:50.297Z,26.98
2022-12-18T07:21:20.643Z,24.58
2022-12-18T07:23:49.122Z,23.65
2022-12-18T07:26:19.135Z,24.77
2022-12-18T07:28:47.181Z,25.08
2022-12-18T07:31:17.764Z,25.10
2022-12-18T07:33:46.206Z,24.77
2022-12-18T07:36:15.937Z,26.83
2022-12-18T07:38:43.985Z,25.50
2022-12-18T07:41:13.827Z,26.20
2022-12-18T07:43:43.104Z,23.48
2022-12-18T07:46:12.323Z,25.33
2022-12-18T07:48:41.565Z,24.35
2022-12-18T07:51:10.555Z,26.02
2022-12-18T07:53:40.520Z,25.65
2022-12-18T07:56:28.054Z,25.38
2022-12-18T07:58:56.407Z,24.38
2022-12-18T08:01:24.459Z,22.33
2022-12-18T08:03:52.730Z,23.88
2022-12-18T08:06:22.392Z,23.50
2022-12-18T08:08:53.350Z,23.90
2022-12-18T08:11:21.542Z,25.35
2022-12-18T08:13:49.735Z,24.02
2022-12-18T08:16:17.954Z,22.95
2022-12-18T08:18:46.003Z,24.15
2022-12-18T08:21:15.990Z,25.05
2022-12-18T08:23:45.292Z,26.27
2022-12-18T08:26:15.543Z,25.00
2022-12-18T08:28:43.903Z,24.08
2022-12-18T08:31:12.286Z,24.23
2022-12-18T08:33:41.608Z,26.92
2022-12-18T08:36:11.815Z,27.10
2022-12-18T08:38:39.959Z,24.58
2022-12-18T08:41:09.915Z,25.38
2022-12-18T08:43:56.847Z,24.13
2022-12-18T08:46:27.306Z,26.65
2022-12-18T08:48:56.438Z,24.77
2022-12-18T08:51:24.715Z,27.48
2022-12-18T08:53:52.612Z,22.95
2022-12-18T08:56:20.533Z,24.98
2022-12-18T08:58:49.858Z,24.20
2022-12-18T09:01:17.862Z,25.02
2022-12-18T09:03:45.821Z,26.30
2022-12-18T09:06:16.580Z,23.73
2022-12-18T09:08:45.069Z,22.20
2022-12-18T09:11:21.368Z,24.27
2022-12-18T09:13:50.855Z,23.42
2022-12-18T09:16:20.615Z,24.05
2022-12-18T09:18:48.750Z,23.70
2022-12-18T09:21:19.414Z,24.83
2022-12-18T09:23:51.733Z,23.88
2022-12-18T09:26:19.789Z,25.95
2022-12-18T09:28:47.999Z,24.90
2022-12-18T09:31:18.027Z,23.27
2022-12-18T09:33:46.581Z,25.25
2022-12-18T09:36:17.106Z,22.67
2022-12-18T09:38:45.672Z,26.52
2022-12-18T09:41:28.671Z,26.88
2022-12-18T09:44:01.731Z,26.48
2022-12-18T09:46:34.861Z,24.58
2022-12-18T09:49:08.160Z,25.95
2022-12-18T09:51:39.638Z,23.90
2022-12-18T09:54:13.229Z,24.83
2022-12-18T09:56:44.397Z,24.05
2022-12-18T09:59:22.181Z,23.63
2022-12-18T10:04:19.653Z,21.17
2022-12-18T10:06:53.157Z,24.70
2022-12-18T10:09:30.670Z,20.92
2022-12-18T10:12:09.558Z,22.77
2022-12-18T10:14:49.757Z,22.15
2022-12-18T10:17:34.341Z,19.80
2022-12-18T10:20:06.626Z,18.23
2022-12-18T10:22:47.049Z,21.60
2022-12-18T10:25:23.999Z,22.90
2022-12-18T10:27:57.797Z,22.52
2022-12-18T10:30:27.673Z,23.15
2022-12-18T10:33:03.263Z,20.80
2022-12-18T10:35:31.691Z,21.98
2022-12-18T10:38:09.505Z,22.13
2022-12-18T10:40:51.800Z,21.75
2022-12-18T10:43:24.091Z,23.58
2022-12-18T10:46:21.053Z,22.77
2022-12-18T10:48:58.825Z,24.65
2022-12-18T10:51:31.715Z,24.08
2022-12-18T10:54:02.722Z,22.73
2022-12-18T10:56:33.686Z,21.20
2022-12-18T10:59:04.919Z,20.38
2022-12-18T11:01:48.995Z,21.70
2022-12-18T11:04:22.632Z,22.13
2022-12-18T11:07:00.007Z,21.00
2022-12-18T11:09:30.197Z,21.63
2022-12-18T11:12:00.442Z,21.83
2022-12-18T11:14:32.961Z,22.77
2022-12-18T11:17:24.885Z,23.02
2022-12-18T11:19:56.921Z,24.13
2022-12-18T11:22:28.597Z,23.33
2022-12-18T11:27:54.022Z,22.15
2022-12-18T11:30:28.076Z,23.00
2022-12-18T11:33:01.429Z,23.83
2022-12-18T11:35:46.706Z,24.42
2022-12-18T11:38:26.509Z,24.42
2022-12-18T11:41:00.183Z,25.70
2022-12-18T11:43:32.034Z,25.38
2022-12-18T11:46:05.727Z,25.98
2022-12-18T11:48:38.459Z,24.65
2022-12-18T11:51:15.962Z,23.17
2022-12-18T11:53:43.904Z,24.48
2022-12-18T11:56:31.001Z,23.42
2022-12-18T11:59:09.781Z,26.02
2022-12-18T12:01:48.462Z,23.80
2022-12-18T12:04:54.261Z,23.38
2022-12-18T12:07:35.578Z,24.35
2022-12-18T12:10:16.389Z,24.45
2022-12-18T12:13:00.829Z,25.88
2022-12-18T12:15:37.912Z,25.42
2022-12-18T12:18:16.164Z,25.65
2022-12-18T12:23:28.510Z,23.58
2022-12-18T12:26:01.883Z,26.25
2022-12-18T12:28:54.606Z,25.45
2022-12-18T12:31:33.815Z,25.50
2022-12-18T12:34:12.325Z,27.27
2022-12-18T12:36:48.827Z,26.38
2022-12-18T12:39:23.891Z,25.95
2022-12-18T12:42:09.455Z,24.13
2022-12-18T12:44:43.248Z,28.23
2022-12-18T12:47:16.972Z,25.60
2022-12-18T12:49:48.784Z,24.63
2022-12-18T12:52:33.300Z,28.05
2022-12-18T12:55:10.311Z,23.27
2022-12-18T12:57:47.284Z,26.20
2022-12-18T13:00:18.123Z,24.85
2022-12-18T13:02:53.110Z,24.02
2022-12-18T13:05:25.581Z,25.35
2022-12-18T13:07:59.866Z,26.42
2022-12-18T13:10:35.472Z,24.23
2022-12-18T13:13:07.249Z,25.55
2022-12-18T13:15:41.863Z,24.65
2022-12-18T13:18:25.076Z,24.35
2022-12-18T13:21:05.486Z,22.80
2022-12-18T13:23:37.248Z,24.27
2022-12-18T13:26:33.482Z,25.17
2022-12-18T13:29:02.975Z,28.85
2022-12-18T13:32:00.625Z,27.25
2022-12-18T13:34:31.871Z,26.05
2022-12-18T13:37:42.771Z,25.98
2022-12-18T13:41:00.137Z,27.33
2022-12-18T13:43:36.499Z,26.58
2022-12-18T13:46:21.325Z,27.25
2022-12-18T13:49:01.907Z,26.63
2022-12-18T13:51:32.992Z,27.70
2022-12-18T13:54:03.775Z,29.58
2022-12-18T13:56:35.209Z,30.90
2022-12-18T13:59:26.703Z,28.92
2022-12-18T14:01:57.109Z,28.98
2022-12-18T14:04:28.705Z,25.90
2022-12-18T14:07:03.248Z,27.67
2022-12-18T14:09:32.651Z,27.83
2022-12-18T14:12:20.130Z,27.00
2022-12-18T14:14:54.924Z,30.92
2022-12-18T14:17:24.943Z,27.63
2022-12-18T14:19:53.893Z,28.38
2022-12-18T14:22:28.853Z,28.92
2022-12-18T14:25:17.382Z,29.33
2022-12-18T14:27:47.443Z,29.73
2022-12-18T14:30:31.971Z,27.58
2022-12-18T14:33:05.069Z,29.92
2022-12-18T14:35:33.144Z,28.30
2022-12-18T14:38:29.833Z,28.17
2022-12-18T14:41:00.169Z,30.08
2022-12-18T14:43:29.674Z,29.17
2022-12-18T14:45:59.577Z,30.08
2022-12-18T14:48:37.285Z,30.15
2022-12-18T14:51:08.514Z,31.35
2022-12-18T14:53:40.545Z,31.33
2022-12-18T14:56:18.088Z,32.47
2022-12-18T14:58:51.157Z,29.83
2022-12-18T15:01:27.040Z,30.27
2022-12-18T15:03:56.477Z,30.38
2022-12-18T15:06:38.115Z,33.88
2022-12-18T15:09:25.129Z,31.05
2022-12-18T15:11:58.615Z,31.65
2022-12-18T15:14:35.782Z,33.13
2022-12-18T15:17:08.347Z,32.50
2022-12-18T15:19:40.570Z,33.88
2022-12-18T15:22:22.256Z,33.35
2022-12-18T15:24:50.601Z,32.88
2022-12-18T15:27:38.773Z,31.58
2022-12-18T15:30:21.934Z,34.47
2022-12-18T15:32:52.384Z,32.20
2022-12-18T15:35:22.905Z,31.77
2022-12-18T15:37:51.467Z,31.15
2022-12-18T15:40:21.597Z,32.47
2022-12-18T15:43:08.623Z,31.33
2022-12-18T15:45:36.681Z,33.30
2022-12-18T15:48:20.029Z,31.35
2022-12-18T15:50:48.069Z,34.33
2022-12-18T15:53:16.247Z,32.70
2022-12-18T15:56:02.029Z,34.90
2022-12-18T15:58:30.267Z,32.30
2022-12-18T16:01:00.082Z,36.22
2022-12-18T16:03:29.600Z,35.28
2022-12-18T16:05:59.246Z,32.58
2022-12-18T16:08:28.273Z,31.70
2022-12-18T16:10:56.972Z,31.13
2022-12-18T16:13:25.508Z,37.00
2022-12-18T16:15:53.500Z,35.10
2022-12-18T16:18:21.889Z,34.63
2022-12-18T16:20:51.521Z,34.05
2022-12-18T16:23:19.733Z,35.70
2022-12-18T16:25:48.785Z,32.90
2022-12-18T16:28:16.738Z,34.38
2022-12-18T16:30:45.819Z,36.55
2022-12-18T16:33:13.764Z,35.83
2022-12-18T16:35:41.977Z,34.20
2022-12-18T16:38:12.210Z,31.25
2022-12-18T16:41:01.816Z,33.47
2022-12-18T16:43:29.867Z,33.78
2022-12-18T16:46:00.344Z,34.03
2022-12-18T16:48:28.467Z,33.38
2022-12-18T16:51:02.643Z,32.22
2022-12-18T16:53:33.578Z,33.40
2022-12-18T16:56:03.254Z,31.13
2022-12-18T16:58:32.653Z,32.72
2022-12-18T17:01:00.668Z,30.42
2022-12-18T17:03:29.050Z,31.35
2022-12-18T17:05:57.008Z,30.48
2022-12-18T17:08:25.149Z,30.35
2022-12-18T17:10:54.708Z,32.22
2022-12-18T17:13:25.753Z,29.90
2022-12-18T17:15:54.127Z,28.60
2022-12-18T17:18:22.444Z,30.73
2022-12-18T17:20:50.302Z,32.15
2022-12-18T17:23:18.175Z,30.20
2022-12-18T17:25:46.116Z,30.40
2022-12-18T17:28:15.351Z,30.02
2022-12-18T17:30:43.212Z,29.63
2022-12-18T17:33:11.086Z,28.98
2022-12-18T17:35:38.947Z,26.98
2022-12-18T17:38:07.333Z,30.95
2022-12-18T17:40:35.276Z,32.67
2022-12-18T17:43:03.365Z,31.02
2022-12-18T17:45:33.073Z,32.85
2022-12-18T17:48:01.042Z,33.72
2022-12-18T17:50:29.458Z,32.22
2022-12-18T17:52:57.795Z,32.72
2022-12-18T17:55:26.105Z,33.35
2022-12-18T17:57:54.160Z,34.15
2022-12-18T18:00:22.762Z,32.97
2022-12-18T18:02:52.692Z,32.00
2022-12-18T18:05:20.788Z,33.42
2022-12-18T18:07:50.653Z,32.80
2022-12-18T18:10:20.684Z,31.90
2022-12-18T18:13:06.273Z,32.47
2022-12-18T18:15:34.325Z,33.00
2022-12-18T18:18:04.840Z,32.97
2022-12-18T18:20:32.726Z,30.20
2022-12-18T18:23:00.765Z,34.17
2022-12-18T18:25:28.928Z,31.92
2022-12-18T18:27:57.081Z,35.28
2022-12-18T18:30:25.041Z,31.52
2022-12-18T18:32:53.134Z,32.65
2022-12-18T18:35:52.326Z,34.78
2022-12-18T18:38:11.462Z,36.53
2022-12-18T18:40:39.508Z,32.67
2022-12-18T18:43:07.461Z,34.45
2022-12-18T18:45:35.773Z,34.47
2022-12-18T18:48:03.685Z,34.25
2022-12-18T18:50:33.142Z,35.15
2022-12-18T18:53:01.491Z,34.25
2022-12-18T18:55:29.405Z,36.67
2022-12-18T18:57:57.685Z,35.63
2022-12-18T19:00:26.525Z,36.35
2022-12-18T19:03:00.263Z,35.78
2022-12-18T19:05:28.919Z,36.53
2022-12-18T19:07:58.181Z,35.55
2022-12-18T19:10:26.586Z,36.33
2022-12-18T19:13:12.508Z,33.78
2022-12-18T19:15:52.114Z,35.97
2022-12-18T19:20:59.308Z,36.85
2022-12-18T19:23:31.931Z,38.30
2022-12-18T19:26:27.077Z,37.13
2022-12-18T19:28:57.735Z,32.78
2022-12-18T19:31:30.373Z,35.92
2022-12-18T19:34:01.734Z,35.75
2022-12-18T19:36:31.345Z,35.33
2022-12-18T19:39:02.533Z,35.38
2022-12-18T19:41:35.141Z,34.67
2022-12-18T19:44:08.283Z,39.47
2022-12-18T19:46:39.465Z,36.90
2022-12-18T19:49:10.562Z,36.83
2022-12-18T19:51:40.581Z,36.90
2022-12-18T19:54:16.220Z,37.88
2022-12-18T19:56:47.785Z,38.03
2022-12-18T19:59:16.531Z,36.25
2022-12-18T20:01:44.592Z,35.67
2022-12-18T20:04:13.585Z,34.92
2022-12-18T20:06:48.952Z,36.35
2022-12-18T20:09:19.591Z,37.17
2022-12-18T20:11:48.975Z,36.78
2022-12-18T20:14:19.615Z,35.17
2022-12-18T20:16:52.072Z,35.63
2022-12-18T20:19:20.869Z,36.40
2022-12-18T20:21:49.275Z,35.88
2022-12-18T20:24:18.584Z,35.55
2022-12-18T20:26:46.569Z,37.03
2022-12-18T20:29:14.473Z,36.45
2022-12-18T20:31:42.409Z,34.67
2022-12-18T20:34:10.403Z,36.90
2022-12-18T20:36:38.834Z,35.83
2022-12-18T20:39:09.843Z,34.78
2022-12-18T20:41:40.232Z,32.78
2022-12-18T20:44:21.541Z,36.20
2022-12-18T20:46:57.285Z,33.55
2022-12-18T20:49:26.991Z,35.50
2022-12-18T20:51:57.160Z,33.10
2022-12-18T20:54:27.511Z,33.78
2022-12-18T20:56:57.521Z,36.22
2022-12-18T20:59:26.262Z,33.50
2022-12-18T21:01:54.796Z,35.22
2022-12-18T21:04:22.980Z,35.03
2022-12-18T21:06:59.253Z,35.75
2022-12-18T21:09:37.558Z,36.63
2022-12-18T21:12:34.054Z,34.97
2022-12-18T21:15:11.591Z,36.13
2022-12-18T21:17:45.111Z,37.13
2022-12-18T21:20:17.276Z,37.83
2022-12-18T21:22:45.824Z,36.63
2022-12-18T21:25:13.785Z,36.65
2022-12-18T21:27:43.036Z,36.58
2022-12-18T21:30:11.499Z,37.35
2022-12-18T21:32:40.263Z,39.10
2022-12-18T21:35:08.797Z,38.95
2022-12-18T21:37:36.811Z,37.42
2022-12-18T21:40:06.119Z,36.38
2022-12-18T21:42:52.003Z,34.58
2022-12-18T21:45:21.260Z,34.95
2022-12-18T21:47:49.160Z,36.17
2022-12-18T21:50:17.113Z,37.65
2022-12-18T21:52:45.006Z,34.33
2022-12-18T21:55:12.905Z,36.42
2022-12-18T21:57:40.777Z,37.50
2022-12-18T22:00:18.745Z,35.30
2022-12-18T22:03:05.644Z,34.63
2022-12-18T22:05:37.188Z,36.17
2022-12-18T22:08:06.652Z,37.40
2022-12-18T22:10:34.885Z,38.40
2022-12-18T22:13:03.190Z,38.42
2022-12-18T22:15:31.130Z,37.25
2022-12-18T22:18:00.669Z,32.88
2022-12-18T22:20:29.754Z,33.72
2022-12-18T22:22:58.359Z,35.08
2022-12-18T22:25:26.298Z,33.97
2022-12-18T22:28:08.178Z,35.03
2022-12-18T22:30:36.225Z,34.53
2022-12-18T22:33:05.759Z,35.70
2022-12-18T22:35:33.642Z,34.72
2022-12-18T22:38:02.582Z,32.88
2022-12-18T22:40:30.804Z,32.28
2022-12-18T22:42:58.917Z,33.85
2022-12-18T22:45:27.807Z,32.08
2022-12-18T22:47:55.984Z,33.75
2022-12-18T22:50:25.235Z,33.13
2022-12-18T22:52:53.128Z,32.38
2022-12-18T22:55:21.233Z,32.15
2022-12-18T22:57:50.419Z,33.65
2022-12-18T23:00:23.903Z,32.10
2022-12-18T23:02:59.151Z,32.63
2022-12-18T23:05:30.569Z,33.75
2022-12-18T23:07:58.697Z,34.80
2022-12-18T23:10:27.554Z,34.25
2022-12-18T23:12:55.650Z,33.38
2022-12-18T23:15:28.066Z,33.08
2022-12-18T23:17:57.926Z,32.78
2022-12-18T23:20:26.096Z,35.53
2022-12-18T23:22:55.415Z,34.15
2022-12-18T23:25:23.585Z,33.03
2022-12-18T23:27:51.557Z,34.38
2022-12-18T23:30:19.538Z,32.72
2022-12-18T23:32:47.744Z,31.42
2022-12-18T23:35:16.156Z,31.10
2022-12-18T23:38:00.521Z,33.28
2022-12-18T23:40:30.794Z,30.88
2022-12-18T23:42:59.952Z,32.67
2022-12-18T23:45:27.932Z,31.30
2022-12-18T23:47:55.865Z,32.60
2022-12-18T23:50:29.315Z,31.98
2022-12-18T23:53:02.127Z,32.67
2022-12-18T23:55:39.732Z,31.58
2022-12-18T23:58:08.750Z,34.08
